KEKY

Bessemer Airport

Bessemer, Alabama, USA
METAR KEKY 101456Z AUTO 32007KT 1SM BR OVC002 03/03 A3019 RMK AO2 UPE55 SLP243 P0000 60000 T00280028 51014 RVRNO
Observed Flight Rules
Dec-10 @ 14:56 UTC (21 minutes ago) Instrument Flight Rules
Wind Visibility Clouds Conditions
320° at 7 knots 1 miles
  • Overcast at 200' AGL
  • Mist
Temperatures Readings Precipitation
Current 3°C / 37°F
Dewpoint 3°C / 37°F
Humidity 100%
Altimeter 30.19" Hg
Pressure 1024.3 hPa
Elevation 213
Current Rain 0.005
METAR KEKY 101456Z AUTO 32007KT 1SM BR OVC002 03/03 A3019 RMK AO2 UPE55 SLP243 P0000 60000 T00280028 51014 RVRNO
Observed Flight Rules
Dec-10 @ 14:56 UTC
(21 minutes ago)
LIFR
Wind Visibility
320° at 7 knots 1 miles
Clouds
  • Overcast at 200' AGL
Conditions
  • Mist
Temperature Dewpoint
3°C / 37°F 3°C / 37°F
Humidity Altimeter Pressure
100% 30.19" Hg 1024.3 hPa
Current Rain
0.005